Flight Track Log - Related Links

Times and Time Zones

All times are in EDT time to prevent confusion due to time zone crossing. See the CNS313 flight status page for this flight to view local times or setup timezone preferences in your user account.


Time Position Orientation Groundspeed Altitude Reporting Facility
EDT Latitude Longitude Course Direction KTS MPH feet Rate Location/Type
Fri 03:45:00 PM 40.8867 -81.5142 200° South 160 184 6,100  Level Cleveland Center
Fri 03:46:00 PM 40.8322 -81.5408 200° South 188 216 7,200 1,200 Climbing Cleveland Center
Fri 03:47:00 PM 40.7778 -81.5703 202° Southwest 206 237 8,500 1,250 Climbing Cleveland Center
Fri 03:48:00 PM 40.7233 -81.5994 202° Southwest 212 244 9,700 1,250 Climbing Cleveland Center
Fri 03:49:00 PM 40.6669 -81.6314 203° Southwest 217 250 11,000 1,235 Climbing Cleveland Center
Fri 03:50:16 PM 40.5983 -81.6647 200° South 223 257 12,500 1,174 Climbing Indianapolis Center
Fri 03:51:18 PM 40.5392 -81.6997 204° Southwest 230 265 13,700 1,113 Climbing Indianapolis Center
Fri 03:52:20 PM 40.4831 -81.7397 208° Southwest 231 266 14,800 1,306 Climbing Indianapolis Center
Fri 03:53:22 PM 40.4542 -81.8197 245° Southwest 207 238 16,400 1,403 Climbing Indianapolis Center
Fri 03:54:24 PM 40.4264 -81.8853 241° Southwest 205 236 17,700 1,016 Climbing Indianapolis Center
Fri 03:55:26 PM 40.4031 -81.9550 217° Southwest 206 237 18,500 919 Climbing Indianapolis Center
Fri 03:56:28 PM 40.3747 -82.0231 241° Southwest 211 243 19,600 1,016 Climbing Indianapolis Center
Fri 03:57:30 PM 40.3475 -82.0933 243° Southwest 214 246 20,600 1,065 Climbing Indianapolis Center
Fri 03:58:32 PM 40.3192 -82.1614 241° Southwest 210 242 21,800 1,065 Climbing Indianapolis Center
Fri 03:59:34 PM 40.2936 -82.2292 244° Southwest 207 238 22,800 919 Climbing Indianapolis Center
Fri 04:00:36 PM 40.2628 -82.3072 243° Southwest 206 237 23,700 576 Climbing Indianapolis Center
Fri 04:01:39 PM 40.2356 -82.3747 242° Southwest 214 246 24,000 144 Climbing Indianapolis Center
Fri 04:02:41 PM 40.2039 -82.4575 243° Southwest 248 285 24,000  Level Indianapolis Center
Fri 04:03:43 PM 40.1697 -82.5419 242° Southwest 260 299 24,000  Level Indianapolis Center
Fri 04:04:45 PM 40.1325 -82.6283 241° Southwest 269 310 24,000  Level Indianapolis Center
Fri 04:05:47 PM 40.0908 -82.7122 237° Southwest 272 313 24,000  Level Indianapolis Center
Fri 04:06:49 PM 40.0422 -82.8100 237° Southwest 273 314 24,000  Level Indianapolis Center
Fri 04:07:51 PM 40.0003 -82.8919 236° Southwest 270 311 24,000  Level Indianapolis Center
Fri 04:08:53 PM 39.9594 -82.9758 238° Southwest 270 311 24,000  Level Indianapolis Center
Fri 04:09:55 PM 39.9178 -83.0594 237° Southwest 273 314 24,000  Level Indianapolis Center
Fri 04:10:57 PM 39.8764 -83.1425 237° Southwest 271 312 24,000  Level Indianapolis Center
Fri 04:11:59 PM 39.8347 -83.2256 237° Southwest 271 312 24,000  Level Indianapolis Center
Fri 04:13:01 PM 39.7928 -83.3092 237° Southwest 272 313 24,000  Level Indianapolis Center
Fri 04:14:03 PM 39.7506 -83.3928 237° Southwest 270 311 24,000  Level Indianapolis Center
Fri 04:15:05 PM 39.7081 -83.4769 237° Southwest 272 313 24,000  Level Indianapolis Center
Fri 04:16:07 PM 39.6667 -83.5597 237° Southwest 269 310 24,000  Level Indianapolis Center
Fri 04:17:09 PM 39.6186 -83.6547 237° Southwest 268 308 24,000  Level Indianapolis Center
Fri 04:18:12 PM 39.5772 -83.7364 237° Southwest 267 307 24,000  Level Indianapolis Center
Fri 04:19:14 PM 39.5361 -83.8169 237° Southwest 266 306 24,000  Level Indianapolis Center
Fri 04:20:16 PM 39.4944 -83.8983 236° Southwest 267 307 24,000  Level Indianapolis Center
Fri 04:21:18 PM 39.4536 -83.9789 237° Southwest 268 308 24,000  Level Indianapolis Center
Fri 04:22:20 PM 39.4122 -84.0594 236° Southwest 268 308 24,000  Level Indianapolis Center
Fri 04:23:22 PM 39.3706 -84.1408 237° Southwest 269 310 24,000  Level Indianapolis Center
Fri 04:24:24 PM 39.3222 -84.2344 236° Southwest 266 306 24,000  Level Indianapolis Center
Fri 04:25:26 PM 39.2950 -84.3192 247° West 254 292 24,000  Level Indianapolis Center
Fri 04:26:28 PM 39.2694 -84.4033 249° West 251 289 24,000  Level Indianapolis Center
Fri 04:27:30 PM 39.2425 -84.4875 248° West 250 288 24,000  Level Indianapolis Center
Fri 04:28:32 PM 39.2183 -84.5719 250° West 249 287 24,000  Level Indianapolis Center
Fri 04:29:34 PM 39.1933 -84.6561 249° West 249 287 24,000  Level Indianapolis Center
Fri 04:30:36 PM 39.1678 -84.7400 249° West 249 287 24,000  Level Indianapolis Center
Fri 04:31:38 PM 39.1311 -84.8186 239° Southwest 254 292 24,000  Level Indianapolis Center
Fri 04:32:40 PM 39.0844 -84.9042 235° Southwest 260 299 24,000  Level Indianapolis Center
Fri 04:33:42 PM 39.0411 -84.9806 234° Southwest 264 304 24,000  Level Indianapolis Center
Fri 04:34:44 PM 39.0003 -85.0561 235° Southwest 259 298 24,000  Level Indianapolis Center
Fri 04:35:46 PM 38.9572 -85.1350 235° Southwest 266 306 24,000  Level Indianapolis Center
Fri 04:36:48 PM 38.9086 -85.2272 236° Southwest 260 299 24,000  Level Indianapolis Center
Fri 04:37:50 PM 38.8650 -85.3053 234° Southwest 267 307 24,000  Level Indianapolis Center
Fri 04:38:53 PM 38.8217 -85.3822 234° Southwest 267 307 24,000  Level Indianapolis Center
Fri 04:39:55 PM 38.7794 -85.4603 235° Southwest 266 306 24,000  Level Indianapolis Center
Fri 04:40:57 PM 38.7378 -85.5361 235° Southwest 262 302 24,000  Level Indianapolis Center
Fri 04:41:59 PM 38.6956 -85.6142 235° Southwest 265 305 24,000  Level Indianapolis Center
Fri 04:43:01 PM 38.6450 -85.7050 235° Southwest 262 302 24,000  Level Indianapolis Center
Fri 04:44:03 PM 38.6036 -85.7800 235° Southwest 265 305 24,000  Level Indianapolis Center
Fri 04:45:05 PM 38.5608 -85.8561 234° Southwest 262 302 24,000  Level Indianapolis Center
Fri 04:46:07 PM 38.5172 -85.9319 234° Southwest 264 304 24,000  Level Indianapolis Center
Fri 04:47:09 PM 38.4750 -86.0078 235° Southwest 262 302 24,000  Level Indianapolis Center
Fri 04:48:11 PM 38.4328 -86.0839 235° Southwest 260 299 24,000  Level Indianapolis Center
Fri 04:49:13 PM 38.3817 -86.1736 234° Southwest 259 298 24,000  Level Indianapolis Center
Fri 04:50:15 PM 38.3389 -86.2494 234° Southwest 261 300 24,000  Level Indianapolis Center
Fri 04:51:17 PM 38.2967 -86.3247 234° Southwest 261 300 24,000  Level Indianapolis Center
Fri 04:52:19 PM 38.2550 -86.3992 235° Southwest 258 297 24,000  Level Indianapolis Center
Fri 04:53:21 PM 38.2122 -86.4733 234° Southwest 257 296 24,000  Level Indianapolis Center
Fri 04:54:23 PM 38.1703 -86.5472 234° Southwest 257 296 24,000  Level Indianapolis Center
Fri 04:55:25 PM 38.1275 -86.6231 234° Southwest 261 300 24,000  Level Indianapolis Center
Fri 04:56:27 PM 38.0844 -86.6969 234° Southwest 259 298 24,000  Level Indianapolis Center
Fri 04:57:29 PM 38.0339 -86.7867 234° Southwest 258 297 24,000  Level Indianapolis Center
Fri 04:58:31 PM 37.9908 -86.8606 234° Southwest 258 297 24,000  Level Indianapolis Center
Fri 04:59:34 PM 37.9486 -86.9350 234° Southwest 258 297 24,000  Level Indianapolis Center
Fri 05:00:36 PM 37.9056 -87.0086 233° Southwest 258 297 24,000  Level Indianapolis Center
Fri 05:01:38 PM 37.8625 -87.0828 234° Southwest 258 297 24,000  Level Indianapolis Center
Fri 05:02:40 PM 37.8203 -87.1556 234° Southwest 256 295 24,000  Level Indianapolis Center
Fri 05:03:42 PM 37.7775 -87.2300 234° Southwest 258 297 24,000  Level Indianapolis Center
Fri 05:04:44 PM 37.7272 -87.3158 233° Southwest 258 297 24,000  Level Indianapolis Center
Fri 05:05:46 PM 37.6847 -87.3889 234° Southwest 257 296 24,000  Level Indianapolis Center
Fri 05:06:48 PM 37.6419 -87.4622 234° Southwest 256 295 24,000  Level Indianapolis Center
Fri 05:07:50 PM 37.5994 -87.5336 233° Southwest 254 292 24,000  Level Indianapolis Center
Fri 05:08:52 PM 37.5564 -87.6069 233° Southwest 256 295 24,000  Level Indianapolis Center
Fri 05:09:54 PM 37.5144 -87.6792 234° Southwest 254 292 24,000  Level Indianapolis Center
Fri 05:10:56 PM 37.4728 -87.7500 233° Southwest 251 289 24,000  Level Indianapolis Center
Fri 05:11:58 PM 37.4231 -87.8322 233° Southwest 251 289 24,000  Level Indianapolis Center
Fri 05:13:00 PM 37.3811 -87.9039 234° Southwest 252 290 24,000  Level Indianapolis Center
Fri 05:14:02 PM 37.3392 -87.9747 233° Southwest 252 290 24,000  Level Indianapolis Center
Fri 05:15:04 PM 37.2969 -88.0450 233° Southwest 251 289 24,000  Level Indianapolis Center
Fri 05:16:08 PM 37.2556 -88.1289 238° Southwest 253 291 24,000  Level Memphis Center
Fri 05:17:08 PM 37.2131 -88.1978 232° Southwest 253 291 24,000  Level Memphis Center
Fri 05:18:08 PM 37.1706 -88.2639 231° Southwest 253 291 24,000  Level Memphis Center
Fri 05:19:08 PM 37.1300 -88.3353 235° Southwest 253 291 24,000  Level Memphis Center
Fri 05:20:08 PM 37.0894 -88.4014 232° Southwest 253 291 24,000  Level Memphis Center
Fri 05:21:08 PM 37.0486 -88.4700 233° Southwest 253 291 24,000  Level Memphis Center
Fri 05:22:08 PM 37.0061 -88.5386 232° Southwest 253 291 24,000  Level Memphis Center
Fri 05:23:08 PM 36.9633 -88.6069 232° Southwest 253 291 24,000  Level Memphis Center
Fri 05:24:08 PM 36.9225 -88.6753 233° Southwest 253 291 24,000  Level Memphis Center
Fri 05:25:08 PM 36.8817 -88.7436 233° Southwest 253 291 24,000  Level Memphis Center
Fri 05:26:08 PM 36.8408 -88.8092 232° Southwest 253 291 24,000  Level Memphis Center
Fri 05:27:08 PM 36.7981 -88.8800 233° Southwest 253 291 24,000  Level Memphis Center
Fri 05:28:08 PM 36.7572 -88.9481 233° Southwest 253 291 24,000  Level Memphis Center
Fri 05:29:08 PM 36.7142 -89.0161 232° Southwest 253 291 24,000  Level Memphis Center
Fri 05:30:08 PM 36.6731 -89.0842 233° Southwest 253 291 24,000  Level Memphis Center
Fri 05:31:08 PM 36.6300 -89.1519 232° Southwest 253 291 24,000  Level Memphis Center
Fri 05:32:08 PM 36.5889 -89.2200 233° Southwest 253 291 24,000  Level Memphis Center
Fri 05:33:08 PM 36.5458 -89.2903 233° Southwest 253 291 24,000  Level Memphis Center
Fri 05:34:08 PM 36.5069 -89.3603 235° Southwest 253 291 24,000  Level Memphis Center
Fri 05:35:08 PM 36.4617 -89.4306 231° Southwest 258 297 24,000  Level Memphis Center
Fri 05:36:08 PM 36.4161 -89.4983 230° Southwest 258 297 24,000  Level Memphis Center
Fri 05:37:08 PM 36.3792 -89.5606 234° Southwest 258 297 24,000  Level Memphis Center
Fri 05:38:08 PM 36.3358 -89.6253 230° Southwest 253 291 24,000  Level Memphis Center
Fri 05:39:08 PM 36.2944 -89.6925 233° Southwest 253 291 24,000  Level Memphis Center
Fri 05:40:08 PM 36.2531 -89.7572 232° Southwest 253 291 24,000  Level Memphis Center
Fri 05:41:08 PM 36.2094 -89.8244 231° Southwest 253 291 24,000  Level Memphis Center
Fri 05:42:08 PM 36.1703 -89.8892 233° Southwest 253 291 24,000  Level Memphis Center
Fri 05:43:08 PM 36.1267 -89.9536 230° Southwest 253 291 24,000  Level Memphis Center
Fri 05:44:09 PM 36.0853 -90.0206 233° Southwest 253 291 24,000  Level Memphis Center
Fri 05:45:08 PM 36.0436 -90.0875 232° Southwest 253 291 24,000  Level Memphis Center
Fri 05:46:08 PM 35.9978 -90.1594 232° Southwest 253 291 24,000  Level Memphis Center
Fri 05:47:08 PM 35.9542 -90.2289 232° Southwest 253 291 24,000  Level Memphis Center
Fri 05:48:08 PM 35.9106 -90.2931 230° Southwest 253 291 24,000  Level Memphis Center
Fri 05:49:08 PM 35.8689 -90.3594 232° Southwest 253 291 24,000  Level Memphis Center
Fri 05:50:08 PM 35.8269 -90.4236 231° Southwest 253 291 24,000  Level Memphis Center
Fri 05:51:08 PM 35.7833 -90.4900 231° Southwest 253 291 24,000  Level Memphis Center
Fri 05:52:08 PM 35.7436 -90.5539 233° Southwest 253 291 24,000  Level Memphis Center
Fri 05:53:08 PM 35.6997 -90.6228 232° Southwest 253 291 24,000  Level Memphis Center
Fri 05:54:08 PM 35.6639 -90.6867 235° Southwest 245 282 24,000  Level Memphis Center
Fri 05:55:08 PM 35.6178 -90.7556 231° Southwest 245 282 24,000  Level Memphis Center
Fri 05:56:08 PM 35.5761 -90.8192 231° Southwest 245 282 24,000  Level Memphis Center
Fri 05:57:08 PM 35.5361 -90.8825 232° Southwest 250 288 24,000  Level Memphis Center
Fri 05:58:08 PM 35.4919 -90.9461 230° Southwest 250 288 24,000  Level Memphis Center
Fri 05:59:08 PM 35.4519 -91.0147 234° Southwest 250 288 24,000  Level Memphis Center
Fri 06:00:08 PM 35.4081 -91.0756 228° Southwest 255 293 24,000  Level Memphis Center
Fri 06:01:08 PM 35.3722 -91.1336 233° Southwest 250 288 24,000  Level Memphis Center
Fri 06:02:08 PM 35.3300 -91.1994 232° Southwest 250 288 24,000  Level Memphis Center
Fri 06:03:08 PM 35.2858 -91.2628 230° Southwest 255 293 24,000  Level Memphis Center
Fri 06:04:08 PM 35.2436 -91.3283 232° Southwest 255 293 24,000  Level Memphis Center
Fri 06:05:08 PM 35.2014 -91.3939 232° Southwest 255 293 24,000  Level Memphis Center
Fri 06:06:08 PM 35.1611 -91.4569 232° Southwest 250 288 24,000  Level Memphis Center
Fri 06:07:08 PM 35.1167 -91.5222 230° Southwest 255 293 24,000  Level Memphis Center
Fri 06:08:08 PM 35.0744 -91.5850 231° Southwest 255 293 24,000  Level Memphis Center
Fri 06:09:08 PM 35.0319 -91.6506 232° Southwest 255 293 24,000  Level Memphis Center
Fri 06:10:08 PM 34.9897 -91.7106 229° Southwest 255 293 24,000  Level Memphis Center
Fri 06:11:08 PM 34.9492 -91.7758 233° Southwest 255 293 24,000  Level Memphis Center
Fri 06:12:08 PM 34.9047 -91.8408 230° Southwest 255 293 24,000  Level Memphis Center
Fri 06:13:08 PM 34.8644 -91.9011 231° Southwest 249 287 24,000  Level Memphis Center
Fri 06:14:08 PM 34.8239 -91.9636 232° Southwest 249 287 24,000  Level Memphis Center
Fri 06:15:08 PM 34.7792 -92.0283 230° Southwest 249 287 24,000  Level Memphis Center
Fri 06:16:08 PM 34.7367 -92.0933 232° Southwest 255 293 24,000  Level Memphis Center
Fri 06:17:08 PM 34.6961 -92.1531 230° Southwest 255 293 24,000  Level Memphis Center
Fri 06:18:08 PM 34.6514 -92.2178 230° Southwest 255 293 24,000  Level Memphis Center
Fri 06:19:08 PM 34.6128 -92.2875 236° Southwest 255 293 24,000  Level Memphis Center
Fri 06:20:08 PM 34.5719 -92.3547 234° Southwest 255 293 24,000  Level Memphis Center
Fri 06:21:08 PM 34.5333 -92.4194 234° Southwest 249 287 24,000  Level Memphis Center
Fri 06:22:08 PM 34.4928 -92.4839 233° Southwest 249 287 24,000  Level Memphis Center
Fri 06:23:08 PM 34.4542 -92.5483 234° Southwest 244 281 24,000  Level Memphis Center
Fri 06:24:08 PM 34.4133 -92.6153 234° Southwest 244 281 24,000  Level Memphis Center
Fri 06:25:08 PM 34.3722 -92.6822 233° Southwest 244 281 24,000  Level Memphis Center
Fri 06:26:08 PM 34.3336 -92.7492 235° Southwest 244 281 24,000  Level Memphis Center
Fri 06:27:08 PM 34.2947 -92.8158 235° Southwest 244 281 24,000  Level Memphis Center
Fri 06:28:49 PM 34.2286 -92.9250 234° Southwest 237 273 24,000  Level Fort Worth Center
Fri 06:29:49 PM 34.1892 -92.9847 231° Southwest 237 273 24,000  Level Fort Worth Center
Fri 06:30:49 PM 34.1497 -93.0519 235° Southwest 237 273 24,000  Level Fort Worth Center
Fri 06:31:49 PM 34.1103 -93.1167 234° Southwest 242 278 24,000  Level Fort Worth Center
Fri 06:32:49 PM 34.0706 -93.1789 232° Southwest 242 278 24,000  Level Fort Worth Center
Fri 06:33:49 PM 34.0311 -93.2458 235° Southwest 242 278 24,000  Level Fort Worth Center
Fri 06:34:49 PM 33.9872 -93.3081 230° Southwest 248 285 24,000  Level Fort Worth Center
Fri 06:35:49 PM 33.9347 -93.3581 218° Southwest 248 285 24,000  Level Fort Worth Center
Fri 06:36:49 PM 33.8819 -93.4081 218° Southwest 248 285 24,000  Level Fort Worth Center
Fri 06:37:49 PM 33.8272 -93.4606 219° Southwest 248 285 24,000  Level Fort Worth Center
Fri 06:38:49 PM 33.7747 -93.5106 218° Southwest 248 285 24,000  Level Fort Worth Center
Fri 06:39:49 PM 33.7219 -93.5628 219° Southwest 248 285 24,000  Level Fort Worth Center
Fri 06:40:49 PM 33.6692 -93.6125 218° Southwest 248 285 24,000  Level Fort Worth Center
Fri 06:41:49 PM 33.6167 -93.6647 220° Southwest 248 285 24,000  Level Fort Worth Center
Fri 06:42:49 PM 33.5639 -93.7142 218° Southwest 248 285 24,000  Level Fort Worth Center
Fri 06:43:49 PM 33.5111 -93.7636 218° Southwest 248 285 24,000 -50 Level Fort Worth Center
Fri 06:44:49 PM 33.4539 -93.8083 213° Southwest 243 280 23,900 -600 Descending Fort Worth Center
Fri 06:45:49 PM 33.3928 -93.8656 218° Southwest 249 287 22,800 -1,450 Descending Fort Worth Center
Fri 06:46:49 PM 33.3275 -93.9181 214° Southwest 274 315 21,000 -1,650 Descending Fort Worth Center
Fri 06:47:49 PM 33.2542 -93.9806 215° Southwest 294 338 19,500 -1,600 Descending Fort Worth Center
Fri 06:48:49 PM 33.1931 -94.0325 215° Southwest 294 338 17,800 -1,850 Descending Fort Worth Center
Fri 06:49:49 PM 33.1297 -94.0844 214° Southwest 289 333 15,800 -2,100 Descending Fort Worth Center
Fri 06:50:49 PM 33.0683 -94.1339 214° Southwest 283 326 13,600 -1,900 Descending Fort Worth Center
Fri 06:51:49 PM 33.0072 -94.1883 217° Southwest 283 326 12,000 -1,550 Descending Fort Worth Center
Fri 06:52:49 PM 32.9478 -94.2372 215° Southwest 283 326 10,500 -1,550 Descending Fort Worth Center
Fri 06:53:49 PM 32.8886 -94.2864 215° Southwest 271 312 8,900 -1,250 Descending Fort Worth Center
Fri 06:54:49 PM 32.8333 -94.3353 217° Southwest 263 303 8,000 -450 Descending Fort Worth Center
Fri 06:55:49 PM 32.7822 -94.3767 214° Southwest 251 289 8,000 -400 Level Fort Worth Center
Fri 06:56:49 PM 32.7392 -94.4150 217° Southwest 246 283 7,200 -1,050 Descending Fort Worth Center
Fri 06:57:49 PM 32.6739 -94.4717 216° Southwest 246 283 5,900 -1,150 Descending Fort Worth Center
Fri 06:58:49 PM 32.6247 -94.5103 213° Southwest 246 283 4,900 -1,100 Descending Fort Worth Center
Fri 06:59:49 PM 32.5736 -94.5636 221° Southwest 236 272 3,700 -1,100 Descending Fort Worth Center
Fri 07:00:49 PM 32.5308 -94.6142 225° Southwest 236 272 2,700 -700 Descending Fort Worth Center
Fri 07:01:49 PM 32.4778 -94.6700 222° Southwest 236 272 2,300 -350 Descending Fort Worth Center
Fri 07:02:49 PM 32.4392 -94.7206 228° Southwest 230 265 2,000 -300 Descending Fort Worth Center
Fri 07:03:49 PM 32.4006 -94.7633 223° Southwest 217 250 1,700 3,000 Descending Fort Worth Center
Fri 07:04:49 PM 32.3597 -94.8139 226° Southwest 217 250 8,000 3,150 Climbing Fort Worth Center
Fri 07:05:49 PM 32.3192 -94.8642 226° Southwest 217 250 8,000  Level Fort Worth Center
Fri 07:06:49 PM 32.2783 -94.9144 226° Southwest 217 250 8,000  Level Fort Worth Center
Fri 07:07:49 PM 32.2619 -94.9344 226° Southwest 217 250 8,000  Level Fort Worth Center

Login

Don't have an account? Register now (free) for customized features, flight alerts, and more!